createdAt,value
2017-07-17T00:01:46.109Z,9.30
2017-07-17T00:04:17.327Z,10.30
2017-07-17T00:06:48.156Z,10.50
2017-07-17T00:09:15.845Z,10.00
2017-07-17T00:11:46.286Z,9.20
2017-07-17T00:14:14.820Z,9.57
2017-07-17T00:16:46.544Z,8.97
2017-07-17T00:19:14.190Z,9.50
2017-07-17T00:21:49.471Z,10.13
2017-07-17T00:24:19.084Z,9.23
2017-07-17T00:29:25.879Z,9.40
2017-07-17T00:34:37.556Z,8.53
2017-07-17T00:39:52.727Z,8.60
2017-07-17T00:42:23.953Z,7.87
2017-07-17T00:44:54.228Z,7.87
2017-07-17T00:47:22.653Z,8.23
2017-07-17T00:49:50.972Z,9.07
2017-07-17T00:52:20.470Z,8.70
2017-07-17T00:54:51.584Z,8.60
2017-07-17T00:57:37.522Z,8.60
2017-07-17T01:00:05.203Z,8.10
2017-07-17T01:02:40.375Z,8.00
2017-07-17T01:05:08.118Z,8.53
2017-07-17T01:07:37.604Z,7.33
2017-07-17T01:10:08.435Z,8.30
2017-07-17T01:12:42.008Z,7.57
2017-07-17T01:15:13.229Z,8.00
2017-07-17T01:17:45.190Z,7.83
2017-07-17T01:20:14.692Z,8.13
2017-07-17T01:22:44.175Z,7.50
2017-07-17T01:25:11.853Z,7.70
2017-07-17T01:27:39.504Z,8.10
2017-07-17T01:30:08.650Z,7.83
2017-07-17T01:32:39.152Z,8.83
2017-07-17T01:35:13.847Z,8.43
2017-07-17T01:37:44.882Z,8.10
2017-07-17T01:40:12.586Z,7.40
2017-07-17T01:42:41.853Z,6.90
2017-07-17T01:45:14.178Z,6.97
2017-07-17T01:47:41.846Z,6.90
2017-07-17T01:50:10.338Z,7.43
2017-07-17T01:52:40.907Z,7.73
2017-07-17T01:55:08.682Z,7.17
2017-07-17T01:57:43.141Z,8.20
2017-07-17T02:00:12.250Z,7.50
2017-07-17T02:02:39.916Z,7.80
2017-07-17T02:05:07.623Z,8.83
2017-07-17T02:07:35.373Z,8.07
2017-07-17T02:12:56.930Z,8.37
2017-07-17T02:15:24.661Z,8.90
2017-07-17T02:17:53.656Z,7.60
2017-07-17T02:20:32.445Z,6.30
2017-07-17T02:23:00.186Z,8.50
2017-07-17T02:25:28.138Z,8.50
2017-07-17T02:27:55.778Z,7.80
2017-07-17T02:30:28.472Z,7.67
2017-07-17T02:35:30.275Z,8.30
2017-07-17T02:37:58.864Z,7.77
2017-07-17T02:40:26.558Z,7.10
2017-07-17T02:42:54.342Z,7.20
2017-07-17T02:48:03.384Z,8.47
2017-07-17T02:50:32.761Z,7.57
2017-07-17T02:53:02.365Z,8.27
2017-07-17T02:55:31.937Z,7.03
2017-07-17T02:58:01.197Z,7.63
2017-07-17T03:00:31.926Z,7.80
2017-07-17T03:03:02.252Z,7.50
2017-07-17T03:05:33.133Z,6.90
2017-07-17T03:08:04.102Z,7.40
2017-07-17T03:10:32.027Z,8.50
2017-07-17T03:12:59.672Z,8.70
2017-07-17T03:15:27.300Z,8.10
2017-07-17T03:17:54.964Z,7.43
2017-07-17T03:20:22.609Z,7.50
2017-07-17T03:22:50.265Z,8.27
2017-07-17T03:25:18.797Z,7.33
2017-07-17T03:27:47.197Z,8.00
2017-07-17T03:30:14.893Z,8.20
2017-07-17T03:32:42.647Z,7.43
2017-07-17T03:35:10.306Z,7.03
2017-07-17T03:37:38.797Z,6.70
2017-07-17T03:40:06.448Z,9.13
2017-07-17T03:42:34.340Z,7.20
2017-07-17T03:45:02.104Z,7.80
2017-07-17T03:47:30.541Z,8.53
2017-07-17T03:49:58.176Z,7.50
2017-07-17T03:52:25.876Z,8.10
2017-07-17T03:54:53.528Z,7.23
2017-07-17T03:57:21.219Z,7.43
2017-07-17T03:59:48.936Z,7.00
2017-07-17T04:02:16.625Z,7.00
2017-07-17T04:04:44.261Z,7.13
2017-07-17T04:07:11.945Z,7.57
2017-07-17T04:09:39.568Z,7.60
2017-07-17T04:12:07.273Z,32.50
2017-07-17T04:14:34.927Z,9.83
2017-07-17T04:17:02.684Z,6.80
2017-07-17T04:19:30.340Z,7.70
2017-07-17T04:21:58.043Z,7.60
2017-07-17T04:24:26.357Z,7.10
2017-07-17T04:26:54.750Z,7.07
2017-07-17T04:29:22.480Z,6.90
2017-07-17T04:31:50.722Z,8.00
2017-07-17T04:34:18.372Z,7.83
2017-07-17T04:36:45.993Z,8.50
2017-07-17T04:39:13.782Z,8.47
2017-07-17T04:41:41.460Z,8.00
2017-07-17T04:44:09.118Z,7.80
2017-07-17T04:46:36.761Z,6.90
2017-07-17T04:49:04.536Z,7.27
2017-07-17T04:51:32.222Z,7.17
2017-07-17T04:53:59.895Z,6.53
2017-07-17T04:56:27.624Z,9.70
2017-07-17T04:58:55.318Z,7.63
2017-07-17T05:01:23.012Z,8.00
2017-07-17T05:03:50.708Z,8.83
2017-07-17T05:06:18.356Z,7.60
2017-07-17T05:08:46.074Z,8.93
2017-07-17T05:11:14.239Z,7.50
2017-07-17T05:13:41.902Z,7.80
2017-07-17T05:16:09.648Z,7.30
2017-07-17T05:18:38.936Z,7.30
2017-07-17T05:21:06.753Z,8.50
2017-07-17T05:23:34.668Z,6.70
2017-07-17T05:26:02.361Z,8.03
2017-07-17T05:28:30.961Z,7.97
2017-07-17T05:30:58.681Z,7.53
2017-07-17T05:33:26.415Z,8.97
2017-07-17T05:35:54.986Z,7.13
2017-07-17T05:38:22.654Z,7.57
2017-07-17T05:40:50.387Z,7.47
2017-07-17T05:43:18.351Z,7.90
2017-07-17T05:45:46.903Z,8.57
2017-07-17T05:48:14.620Z,8.43
2017-07-17T05:50:42.309Z,8.30
2017-07-17T05:53:10.007Z,7.60
2017-07-17T05:55:38.012Z,8.07
2017-07-17T05:58:05.834Z,7.27
2017-07-17T06:00:33.569Z,7.27
2017-07-17T06:03:01.319Z,9.00
2017-07-17T06:05:29.353Z,7.87
2017-07-17T06:07:57.097Z,9.90
2017-07-17T06:10:36.121Z,10.70
2017-07-17T06:13:03.894Z,9.67
2017-07-17T06:15:31.747Z,9.60
2017-07-17T06:17:59.898Z,11.67
2017-07-17T06:20:29.473Z,10.50
2017-07-17T06:23:01.626Z,10.30
2017-07-17T06:25:31.262Z,10.47
2017-07-17T06:27:59.725Z,11.70
2017-07-17T06:30:27.845Z,12.13
2017-07-17T06:32:55.632Z,10.80
2017-07-17T06:35:23.579Z,10.47
2017-07-17T06:37:51.299Z,11.43
2017-07-17T06:40:19.081Z,11.40
2017-07-17T06:42:46.760Z,11.17
2017-07-17T06:45:15.151Z,10.60
2017-07-17T06:47:42.803Z,11.57
2017-07-17T06:50:10.456Z,9.37
2017-07-17T06:52:39.979Z,10.17
2017-07-17T06:55:07.696Z,9.30
2017-07-17T06:57:35.355Z,9.50
2017-07-17T07:00:03.066Z,9.60
2017-07-17T07:02:30.760Z,9.17
2017-07-17T07:04:58.453Z,10.20
2017-07-17T07:07:26.159Z,9.00
2017-07-17T07:09:53.807Z,9.53
2017-07-17T07:12:21.566Z,8.50
2017-07-17T07:14:49.214Z,9.37
2017-07-17T07:17:16.958Z,9.83
2017-07-17T07:19:44.710Z,8.53
2017-07-17T07:22:12.453Z,8.40
2017-07-17T07:24:40.327Z,9.17
2017-07-17T07:27:08.014Z,8.97
2017-07-17T07:29:35.697Z,8.83
2017-07-17T07:32:03.461Z,8.30
2017-07-17T07:34:31.170Z,8.30
2017-07-17T07:36:58.903Z,8.70
2017-07-17T07:39:26.628Z,8.10
2017-07-17T07:41:54.344Z,8.23
2017-07-17T07:44:22.997Z,7.73
2017-07-17T07:46:50.742Z,9.73
2017-07-17T07:49:18.566Z,7.53
2017-07-17T07:51:46.293Z,8.03
2017-07-17T07:54:14.285Z,7.53
2017-07-17T07:56:42.069Z,8.03
2017-07-17T07:59:09.845Z,7.83
2017-07-17T08:01:37.658Z,7.97
2017-07-17T08:04:05.341Z,6.70
2017-07-17T08:06:33.081Z,5.63
2017-07-17T08:09:00.846Z,6.90
2017-07-17T08:11:28.663Z,4.97
2017-07-17T08:13:56.517Z,5.00
2017-07-17T08:16:24.291Z,6.90
2017-07-17T08:18:51.996Z,7.57
2017-07-17T08:21:19.772Z,7.20
2017-07-17T08:23:47.448Z,6.63
2017-07-17T08:26:15.225Z,6.90
2017-07-17T08:28:43.068Z,5.93
2017-07-17T08:31:10.742Z,7.07
2017-07-17T08:33:38.410Z,7.70
2017-07-17T08:36:06.033Z,7.03
2017-07-17T08:38:33.712Z,7.10
2017-07-17T08:41:01.331Z,7.47
2017-07-17T08:43:29.732Z,8.17
2017-07-17T08:45:57.404Z,8.47
2017-07-17T08:48:25.108Z,9.10
2017-07-17T08:50:52.897Z,7.03
2017-07-17T08:53:20.799Z,8.70
2017-07-17T08:55:48.658Z,7.83
2017-07-17T08:58:16.470Z,7.77
2017-07-17T09:00:44.226Z,8.20
2017-07-17T09:03:11.959Z,7.23
2017-07-17T09:05:39.631Z,6.90
2017-07-17T09:08:07.264Z,6.63
2017-07-17T09:10:34.965Z,6.80
2017-07-17T09:13:02.626Z,6.70
2017-07-17T09:15:30.462Z,5.53
2017-07-17T09:17:58.222Z,5.97
2017-07-17T09:20:26.099Z,5.40
2017-07-17T09:22:53.854Z,6.10
2017-07-17T09:25:21.553Z,5.87
2017-07-17T09:27:49.349Z,6.40
2017-07-17T09:30:17.975Z,6.87
2017-07-17T09:32:45.722Z,5.70
2017-07-17T09:35:13.498Z,6.87
2017-07-17T09:37:41.255Z,6.40
2017-07-17T09:40:09.128Z,5.63
2017-07-17T09:42:36.951Z,6.07
2017-07-17T09:45:04.801Z,6.50
2017-07-17T09:47:32.690Z,6.03
2017-07-17T09:50:00.641Z,5.90
2017-07-17T09:52:28.528Z,4.27
2017-07-17T09:54:56.394Z,5.70
2017-07-17T09:57:24.128Z,5.63
2017-07-17T09:59:51.883Z,4.67
2017-07-17T10:02:19.876Z,5.13
2017-07-17T10:04:47.800Z,5.00
2017-07-17T10:07:15.564Z,5.47
2017-07-17T10:09:43.283Z,4.93
2017-07-17T10:12:11.027Z,5.20
2017-07-17T10:14:38.824Z,5.50
2017-07-17T10:17:06.773Z,5.70
2017-07-17T10:19:34.713Z,6.57
2017-07-17T10:22:02.571Z,6.73
2017-07-17T10:24:30.415Z,6.60
2017-07-17T10:26:58.271Z,6.03
2017-07-17T10:29:26.998Z,5.83
2017-07-17T10:31:54.831Z,6.50
2017-07-17T10:34:22.581Z,7.33
2017-07-17T10:36:50.432Z,6.93
2017-07-17T10:39:18.340Z,7.13
2017-07-17T10:41:46.192Z,7.60
2017-07-17T10:44:14.088Z,7.30
2017-07-17T10:46:41.873Z,9.07
2017-07-17T10:49:09.776Z,7.47
2017-07-17T10:51:37.511Z,8.00
2017-07-17T10:54:05.304Z,7.10
2017-07-17T10:56:33.130Z,6.60
2017-07-17T10:59:00.894Z,7.53
2017-07-17T11:01:28.676Z,7.20
2017-07-17T11:03:56.546Z,8.10
2017-07-17T11:06:24.305Z,6.97
2017-07-17T11:08:52.082Z,7.43
2017-07-17T11:11:19.733Z,7.17
2017-07-17T11:13:47.465Z,6.77
2017-07-17T11:16:15.186Z,5.97
2017-07-17T11:18:42.956Z,6.37
2017-07-17T11:21:10.672Z,5.60
2017-07-17T11:23:38.410Z,6.17
2017-07-17T11:26:06.251Z,6.33
2017-07-17T11:28:33.953Z,6.90
2017-07-17T11:31:01.847Z,5.87
2017-07-17T11:33:29.620Z,7.03
2017-07-17T11:35:57.491Z,7.17
2017-07-17T11:38:25.171Z,8.33
2017-07-17T11:40:53.746Z,8.13
2017-07-17T11:43:21.522Z,7.80
2017-07-17T11:45:49.316Z,7.37
2017-07-17T11:58:22.620Z,7.00
2017-07-17T12:00:50.457Z,6.60
2017-07-17T12:03:18.304Z,7.00
2017-07-17T12:05:46.158Z,7.30
2017-07-17T12:08:14.006Z,6.80
2017-07-17T12:10:41.778Z,6.83
2017-07-17T12:13:09.634Z,6.17
2017-07-17T12:15:37.502Z,5.30
2017-07-17T12:18:05.376Z,6.60
2017-07-17T12:20:33.132Z,6.63
2017-07-17T12:23:00.906Z,6.40
2017-07-17T12:25:28.692Z,6.47
2017-07-17T12:27:56.528Z,5.20
2017-07-17T12:30:24.275Z,6.27
2017-07-17T12:32:52.040Z,6.60
2017-07-17T12:35:19.746Z,7.07
2017-07-17T12:37:47.466Z,5.60
2017-07-17T12:40:15.201Z,5.77
2017-07-17T12:42:43.031Z,6.10
2017-07-17T12:45:10.863Z,6.53
2017-07-17T12:47:38.761Z,5.47
2017-07-17T12:50:06.524Z,5.27
2017-07-17T12:52:34.276Z,4.50
2017-07-17T12:55:01.920Z,5.90
2017-07-17T12:57:29.669Z,4.07
2017-07-17T12:59:57.570Z,4.40
2017-07-17T13:02:25.291Z,5.43
2017-07-17T13:04:53.504Z,5.73
2017-07-17T13:07:21.240Z,4.63
2017-07-17T13:09:48.944Z,4.77
2017-07-17T13:12:16.618Z,5.30
2017-07-17T13:14:44.346Z,6.00
2017-07-17T13:17:12.068Z,6.80
2017-07-17T13:19:39.867Z,8.17
2017-07-17T13:22:07.668Z,8.03
2017-07-17T13:24:35.552Z,6.57
2017-07-17T13:27:03.322Z,8.00
2017-07-17T13:29:31.101Z,6.87
2017-07-17T13:31:59.064Z,7.33
2017-07-17T13:34:26.809Z,7.77
2017-07-17T13:36:54.531Z,7.23
2017-07-17T13:39:22.210Z,17.00
2017-07-17T13:41:49.935Z,9.30
2017-07-17T13:44:17.647Z,7.77
2017-07-17T13:46:45.286Z,6.43
2017-07-17T13:49:13.006Z,6.90
2017-07-17T13:51:40.770Z,7.40
2017-07-17T13:54:08.480Z,7.63
2017-07-17T13:56:36.195Z,7.43
2017-07-17T13:59:03.968Z,7.40
2017-07-17T14:01:31.615Z,6.10
2017-07-17T14:03:59.518Z,5.63
2017-07-17T14:06:27.331Z,16.00
2017-07-17T14:08:55.190Z,5.50
2017-07-17T14:11:23.089Z,5.70
2017-07-17T14:13:51.152Z,9.50
2017-07-17T14:16:19.201Z,4.90
2017-07-17T14:18:47.152Z,8.57
2017-07-17T14:21:14.987Z,4.07
2017-07-17T14:23:42.895Z,3.70
2017-07-17T14:26:10.650Z,4.30
2017-07-17T14:28:38.857Z,3.57
2017-07-17T14:31:06.671Z,3.70
2017-07-17T14:33:34.504Z,4.17
2017-07-17T14:36:02.495Z,4.23
2017-07-17T14:38:30.910Z,3.83
2017-07-17T14:40:58.760Z,4.80
2017-07-17T14:43:26.752Z,5.73
2017-07-17T14:45:54.583Z,3.77
2017-07-17T14:48:22.313Z,3.10
2017-07-17T14:50:50.156Z,3.43
2017-07-17T14:53:17.929Z,3.30
2017-07-17T14:55:45.731Z,4.17
2017-07-17T14:58:13.481Z,3.63
2017-07-17T15:00:41.290Z,3.60
2017-07-17T15:03:09.280Z,7.87
2017-07-17T15:05:37.042Z,3.83
2017-07-17T15:08:04.932Z,3.10
2017-07-17T15:10:32.671Z,16.50
2017-07-17T15:13:00.428Z,3.00
2017-07-17T15:15:28.197Z,3.00
2017-07-17T15:17:56.002Z,2.40
2017-07-17T15:20:23.663Z,2.83
2017-07-17T15:22:51.761Z,3.10
2017-07-17T15:25:19.649Z,3.33
2017-07-17T15:27:47.513Z,2.50
2017-07-17T15:30:15.342Z,3.13
2017-07-17T15:32:43.711Z,3.53
2017-07-17T15:35:11.500Z,3.70
2017-07-17T15:37:39.246Z,3.13
2017-07-17T15:40:06.962Z,3.23
2017-07-17T15:42:34.766Z,3.73
2017-07-17T15:45:02.651Z,2.60
2017-07-17T15:47:30.442Z,2.70
2017-07-17T15:49:58.535Z,3.23
2017-07-17T15:52:26.360Z,2.10
2017-07-17T15:54:54.106Z,2.40
2017-07-17T15:57:21.890Z,3.60
2017-07-17T15:59:49.757Z,2.40
2017-07-17T16:02:17.548Z,2.47
2017-07-17T16:04:45.294Z,2.53
2017-07-17T16:07:13.086Z,2.87
2017-07-17T16:09:40.895Z,2.50
2017-07-17T16:12:08.936Z,1.70
2017-07-17T16:14:37.391Z,2.10
2017-07-17T16:17:05.250Z,14.90
2017-07-17T16:19:33.118Z,3.53
2017-07-17T16:22:01.068Z,2.40
2017-07-17T16:24:28.881Z,2.00
2017-07-17T16:27:03.121Z,2.43
2017-07-17T16:32:48.265Z,2.40
2017-07-17T16:35:19.667Z,2.30
2017-07-17T16:37:52.369Z,1.87
2017-07-17T16:40:20.393Z,1.87
2017-07-17T16:42:48.287Z,2.00
2017-07-17T16:45:16.196Z,1.80
2017-07-17T16:47:44.001Z,1.93
2017-07-17T16:50:11.904Z,1.60
2017-07-17T16:52:39.653Z,2.33
2017-07-17T16:55:07.827Z,1.63
2017-07-17T16:57:35.822Z,1.90
2017-07-17T17:00:03.778Z,2.03
2017-07-17T17:02:31.628Z,2.00
2017-07-17T17:04:59.551Z,1.90
2017-07-17T17:07:27.409Z,5.83
2017-07-17T17:09:55.234Z,2.80
2017-07-17T17:12:24.116Z,1.83
2017-07-17T17:14:52.032Z,1.93
2017-07-17T17:17:19.841Z,2.00
2017-07-17T17:19:47.768Z,1.50
2017-07-17T17:22:15.676Z,2.13
2017-07-17T17:24:43.512Z,2.30
2017-07-17T17:27:11.423Z,2.17
2017-07-17T17:29:39.344Z,2.30
2017-07-17T17:32:07.968Z,2.10
2017-07-17T17:34:35.894Z,1.43
2017-07-17T17:37:03.895Z,1.77
2017-07-17T17:39:32.054Z,1.93
2017-07-17T17:41:59.906Z,9.40
2017-07-17T17:44:27.744Z,3.70
2017-07-17T17:46:55.661Z,3.50
2017-07-17T17:49:23.381Z,2.20
2017-07-17T17:51:51.244Z,2.20
2017-07-17T17:54:18.965Z,2.50
2017-07-17T17:56:46.809Z,2.50
2017-07-17T17:59:14.518Z,2.90
2017-07-17T18:01:42.224Z,2.00
2017-07-17T18:04:09.950Z,2.30
2017-07-17T18:06:37.780Z,2.30
2017-07-17T18:09:05.587Z,3.10
2017-07-17T18:11:33.291Z,2.20
2017-07-17T18:14:00.940Z,1.97
2017-07-17T18:16:28.685Z,2.20
2017-07-17T18:18:56.496Z,2.63
2017-07-17T18:21:24.290Z,2.60
2017-07-17T18:23:51.973Z,3.30
2017-07-17T18:26:19.629Z,1.73
2017-07-17T18:28:47.427Z,2.47
2017-07-17T18:31:15.030Z,2.80
2017-07-17T18:33:42.696Z,2.10
2017-07-17T18:36:10.358Z,1.50
2017-07-17T18:38:38.015Z,2.03
2017-07-17T18:41:05.660Z,2.23
2017-07-17T18:43:33.393Z,2.10
2017-07-17T18:46:01.015Z,1.90
2017-07-17T18:48:28.727Z,2.10
2017-07-17T18:50:56.426Z,1.70
2017-07-17T18:53:24.156Z,2.00
2017-07-17T18:55:51.859Z,1.90
2017-07-17T18:58:19.817Z,1.73
2017-07-17T19:00:47.519Z,3.17
2017-07-17T19:03:15.240Z,1.87
2017-07-17T19:05:43.060Z,2.23
2017-07-17T19:08:11.010Z,1.53
2017-07-17T19:10:39.068Z,1.70
2017-07-17T19:13:06.892Z,1.73
2017-07-17T19:15:34.783Z,1.47
2017-07-17T19:18:02.614Z,1.63
2017-07-17T19:20:30.431Z,2.10
2017-07-17T19:22:58.310Z,2.13
2017-07-17T19:25:26.537Z,8.10
2017-07-17T19:27:55.212Z,2.20
2017-07-17T19:30:23.183Z,1.80
2017-07-17T19:32:50.966Z,1.17
2017-07-17T19:35:18.803Z,1.63
2017-07-17T19:37:46.585Z,1.50
2017-07-17T19:40:14.422Z,1.50
2017-07-17T19:42:42.192Z,1.90
2017-07-17T19:45:10.101Z,1.80
2017-07-17T19:47:37.854Z,1.20
2017-07-17T19:50:05.640Z,10.53
2017-07-17T19:52:33.415Z,12.43
2017-07-17T19:55:01.395Z,2.67
2017-07-17T19:57:29.194Z,2.00
2017-07-17T19:59:56.959Z,1.40
2017-07-17T20:02:24.710Z,1.40
2017-07-17T20:04:52.536Z,1.97
2017-07-17T20:24:53.609Z,2.20
2017-07-17T20:33:24.504Z,2.10
2017-07-17T20:35:52.462Z,1.70
2017-07-17T20:38:21.630Z,2.40
2017-07-17T20:43:43.471Z,2.37
2017-07-17T20:46:11.291Z,1.83
2017-07-17T20:48:39.316Z,2.40
2017-07-17T20:51:07.231Z,2.00
2017-07-17T20:53:35.162Z,2.10
2017-07-17T20:56:03.164Z,2.10
2017-07-17T20:58:31.024Z,2.00
2017-07-17T21:00:58.931Z,2.20
2017-07-17T21:03:26.750Z,2.47
2017-07-17T21:05:55.569Z,1.80
2017-07-17T21:08:25.030Z,2.47
2017-07-17T21:10:52.869Z,2.37
2017-07-17T21:13:20.757Z,2.17
2017-07-17T21:15:49.168Z,2.37
2017-07-17T21:18:16.859Z,2.30
2017-07-17T21:20:44.526Z,2.47
2017-07-17T21:23:12.794Z,2.43
2017-07-17T21:25:44.285Z,2.40
2017-07-17T21:28:13.520Z,3.27
2017-07-17T21:30:42.292Z,2.17
2017-07-17T21:33:11.690Z,2.20
2017-07-17T21:35:40.194Z,2.23
2017-07-17T21:38:08.487Z,2.30
2017-07-17T21:40:36.645Z,2.17
2017-07-17T21:43:04.631Z,3.00
2017-07-17T21:45:32.864Z,2.50
2017-07-17T21:48:00.896Z,2.13
2017-07-17T21:50:29.379Z,3.87
2017-07-17T21:52:57.651Z,2.90
2017-07-17T21:55:25.973Z,2.30
2017-07-17T21:57:54.600Z,2.70
2017-07-17T22:00:22.898Z,2.37
2017-07-17T22:02:53.714Z,4.43
2017-07-17T22:05:22.206Z,2.53
2017-07-17T22:07:50.371Z,2.90
2017-07-17T22:10:18.567Z,2.50
2017-07-17T22:12:46.758Z,3.17
2017-07-17T22:15:15.073Z,3.10
2017-07-17T22:17:43.318Z,3.33
2017-07-17T22:20:11.695Z,3.10
2017-07-17T22:22:40.179Z,2.90
2017-07-17T22:25:08.582Z,2.97
2017-07-17T22:27:36.932Z,3.00
2017-07-17T22:30:05.434Z,3.00
2017-07-17T22:32:34.558Z,3.10
2017-07-17T22:35:02.894Z,4.20
2017-07-17T22:37:31.267Z,3.30
2017-07-17T22:39:59.688Z,3.03
2017-07-17T22:42:28.017Z,3.43
2017-07-17T22:44:56.453Z,3.10
2017-07-17T22:47:24.832Z,2.97
2017-07-17T22:49:53.365Z,3.37
2017-07-17T22:52:21.866Z,3.27
2017-07-17T22:54:50.511Z,4.27
2017-07-17T22:57:18.673Z,4.30
2017-07-17T22:59:46.886Z,3.37
2017-07-17T23:02:15.146Z,3.40
2017-07-17T23:04:43.014Z,3.20
2017-07-17T23:07:10.942Z,3.60
2017-07-17T23:09:39.158Z,3.17
2017-07-17T23:12:07.410Z,3.90
2017-07-17T23:14:35.721Z,3.80
2017-07-17T23:17:04.054Z,3.90
2017-07-17T23:19:32.608Z,3.90
2017-07-17T23:22:02.488Z,3.60
2017-07-17T23:24:30.718Z,3.00
2017-07-17T23:26:59.368Z,2.90
2017-07-17T23:29:27.983Z,3.13
2017-07-17T23:31:56.214Z,2.43
2017-07-17T23:34:25.087Z,4.80
2017-07-17T23:36:53.549Z,3.67
2017-07-17T23:39:21.952Z,3.00
2017-07-17T23:41:50.364Z,2.80
2017-07-17T23:44:18.906Z,3.10
2017-07-17T23:46:47.392Z,3.13
2017-07-17T23:49:15.369Z,3.73
2017-07-17T23:51:43.405Z,2.93
2017-07-17T23:54:11.213Z,3.60
2017-07-17T23:56:39.766Z,2.80
2017-07-17T23:59:07.790Z,2.90
